الصفحة الرئيسية
METAR-TAF:

METAR-TAF

مطار :

Alice Springs, أستراليا

دائرة عرض: 23-48S, خط طول: 133-53E, ارتفاع: 545 متر

مراقبة الطقس الحالي

تاريخ ووقت الإصدار 23 دقيقة قبل الساعة 00:00UTC
ريح 9 عقدة من الجنوب
درجة الحرارة 20°درجة مئوية
الرطوبة 15%
ضغط 1023 hPa
الرؤية 10 كم أو أكثر

METAR: YBAS 180000Z AUTO 17009KT 9999 // NCD 20/M07 Q1023 RF00.0/000.0 PRESENT WEATHER SENSOR US

زمن: 09:53 (00:23 UTC)

توقعات

تاريخ ووقت الإصدار 1ساعة و 16 دقيقة قبل الساعة 23:07UTC
التوقعات صالحة من18 الساعة 00 UTC إلى 18 الساعة 24 UTC
ريح 12 عقدة من الجنوب الشرقي
الرؤية 10 كم أو أكثر
الغيوم لا تقل 1500 م ولا وجود لمزنة ركامية السحاب الأسود

TAF: YBAS 172307Z 1800/1824 14012KT CAVOK

أرصاد الطقس والتوقعات من أكثر من 4000 مطار (تقارير الطقس للمطار METAR والتنبؤ بالطقس بالمطارTAF).

المحطات المتاحة هي النقط الصفراء والحمراء على الخريطة.

حرك المؤشر فوق النقطة لمعرفة اسم المحطة.

ثم انقر لمعرفة أرصاد وتوقعات الطقس.

لتغيير الخارطة: اضغط على الأزرار الخضراء مع رمز الصليب الأسود للتكبير. على الزر الأخضر مع شرطة للتصغير، أو على الأسهم الخضراء للخرائط المجاورة.


METAR-TAF: